Time,TemperatureF,DewpointF,PressureIn,WindDirection,WindDirectionDegrees,WindSpeedMPH,WindSpeedGustMPH,Humidity,HourlyPrecipIn,Conditions,Clouds,dailyrainin,SoftwareType,DateUTC
2013-05-03 00:01:00,70.0,0.0,-100.00,ENE,74,11.0,20.0,6,-99.99,,,-99.99,,2013-05-03 07:01:00,
2013-05-03 00:11:00,70.0,0.0,-100.00,ENE,70,7.0,17.0,6,-99.99,,,-99.99,,2013-05-03 07:11:00,
2013-05-03 00:21:00,70.0,0.0,-100.00,ENE,60,15.0,24.0,6,-99.99,,,-99.99,,2013-05-03 07:21:00,
2013-05-03 00:31:00,69.0,2.0,-100.00,ENE,61,14.0,23.0,7,-99.99,,,-99.99,,2013-05-03 07:31:00,
2013-05-03 00:42:00,70.0,3.0,-100.00,ENE,64,15.0,27.0,7,-99.99,,,-99.99,,2013-05-03 07:42:00,
2013-05-03 00:52:00,70.0,0.0,-100.00,NNE,17,7.0,22.0,6,-99.99,,,-99.99,,2013-05-03 07:52:00,
2013-05-03 01:01:00,70.0,3.0,-100.00,East,95,8.0,17.0,7,-99.99,,,-99.99,,2013-05-03 08:01:00,
2013-05-03 01:11:00,70.0,3.0,-100.00,East,95,8.0,17.0,7,-99.99,,,-99.99,,2013-05-03 08:11:00,
2013-05-03 01:21:00,70.0,3.0,-100.00,East,94,9.0,20.0,7,-99.99,,,-99.99,,2013-05-03 08:21:00,
2013-05-03 01:31:00,70.0,3.0,-100.00,NE,56,5.0,17.0,7,-99.99,,,-99.99,,2013-05-03 08:31:00,
2013-05-03 01:42:00,69.0,2.0,-100.00,ENE,64,10.0,19.0,7,-99.99,,,-99.99,,2013-05-03 08:42:00,
2013-05-03 01:52:00,69.0,2.0,-100.00,SE,132,7.0,14.0,7,-99.99,,,-99.99,,2013-05-03 08:52:00,
2013-05-03 02:01:00,69.0,-1.0,-100.00,South,177,4.0,9.0,6,-99.99,,,-99.99,,2013-05-03 09:01:00,
2013-05-03 02:11:00,68.0,2.0,-100.00,East,92,5.0,15.0,7,-99.99,,,-99.99,,2013-05-03 09:11:00,
2013-05-03 02:21:00,68.0,2.0,-100.00,SSE,160,4.0,12.0,7,-99.99,,,-99.99,,2013-05-03 09:21:00,
2013-05-03 02:32:00,69.0,-1.0,-100.00,South,185,4.0,11.0,6,-99.99,,,-99.99,,2013-05-03 09:32:00,
2013-05-03 02:42:00,69.0,2.0,-100.00,East,100,7.0,16.0,7,-99.99,,,-99.99,,2013-05-03 09:42:00,
2013-05-03 02:52:00,68.0,2.0,-100.00,SSE,168,5.0,11.0,7,-99.99,,,-99.99,,2013-05-03 09:52:00,
2013-05-03 03:02:00,68.0,2.0,-100.00,South,179,4.0,7.0,7,-99.99,,,-99.99,,2013-05-03 10:02:00,
2013-05-03 03:12:00,68.0,-2.0,-100.00,SSE,164,3.0,5.0,6,-99.99,,,-99.99,,2013-05-03 10:12:00,
2013-05-03 03:22:00,68.0,2.0,-100.00,SE,126,5.0,13.0,7,-99.99,,,-99.99,,2013-05-03 10:22:00,
2013-05-03 03:32:00,68.0,2.0,-100.00,South,175,4.0,15.0,7,-99.99,,,-99.99,,2013-05-03 10:32:00,
2013-05-03 03:42:00,66.0,0.0,-100.00,ESE,104,3.0,11.0,7,-99.99,,,-99.99,,2013-05-03 10:42:00,
2013-05-03 03:52:00,68.0,5.0,-100.00,ESE,116,6.0,16.0,8,-99.99,,,-99.99,,2013-05-03 10:52:00,
2013-05-03 04:02:00,68.0,2.0,-100.00,SE,140,5.0,17.0,7,-99.99,,,-99.99,,2013-05-03 11:02:00,
2013-05-03 04:11:00,68.0,2.0,-100.00,SE,139,7.0,17.0,7,-99.99,,,-99.99,,2013-05-03 11:11:00,
2013-05-03 04:21:00,69.0,2.0,-100.00,ESE,123,5.0,15.0,7,-99.99,,,-99.99,,2013-05-03 11:21:00,
2013-05-03 04:31:00,69.0,2.0,-100.00,ESE,123,5.0,15.0,7,-99.99,,,-99.99,,2013-05-03 11:31:00,
2013-05-03 04:41:00,69.0,5.0,-100.00,ENE,72,13.0,23.0,8,-99.99,,,-99.99,,2013-05-03 11:41:00,
2013-05-03 04:51:00,69.0,5.0,-100.00,East,97,7.0,18.0,8,-99.99,,,-99.99,,2013-05-03 11:51:00,
2013-05-03 05:01:00,69.0,5.0,-100.00,NE,36,8.0,21.0,8,-99.99,,,-99.99,,2013-05-03 12:01:00,
2013-05-03 05:11:00,68.0,5.0,-100.00,ENE,60,11.0,22.0,8,-99.99,,,-99.99,,2013-05-03 12:11:00,
2013-05-03 05:21:00,68.0,5.0,-100.00,ESE,118,8.0,19.0,8,-99.99,,,-99.99,,2013-05-03 12:21:00,
2013-05-03 05:32:00,68.0,5.0,-100.00,South,171,8.0,19.0,8,-99.99,,,-99.99,,2013-05-03 12:32:00,
2013-05-03 05:41:00,68.0,5.0,-100.00,South,171,8.0,19.0,8,-99.99,,,-99.99,,2013-05-03 12:41:00,
2013-05-03 05:51:00,67.0,4.0,-100.00,SSE,159,6.0,14.0,8,-99.99,,,-99.99,,2013-05-03 12:51:00,
2013-05-03 06:01:00,68.0,5.0,-100.00,ESE,109,6.0,16.0,8,-99.99,,,-99.99,,2013-05-03 13:01:00,
2013-05-03 06:11:00,67.0,4.0,-100.00,ENE,62,5.0,15.0,8,-99.99,,,-99.99,,2013-05-03 13:11:00,
2013-05-03 06:22:00,68.0,5.0,-100.00,ENE,62,14.0,24.0,8,-99.99,,,-99.99,,2013-05-03 13:22:00,
2013-05-03 06:31:00,69.0,5.0,-100.00,ENE,70,17.0,29.0,8,-99.99,,,-99.99,,2013-05-03 13:31:00,
2013-05-03 06:42:00,69.0,2.0,-100.00,ENE,62,14.0,24.0,7,-99.99,,,-99.99,,2013-05-03 13:42:00,
2013-05-03 06:52:00,70.0,3.0,-100.00,ENE,59,13.0,26.0,7,-99.99,,,-99.99,,2013-05-03 13:52:00,
2013-05-03 07:01:00,69.0,5.0,-100.00,ENE,58,15.0,29.0,8,-99.99,,,-99.99,,2013-05-03 14:01:00,
2013-05-03 07:11:00,69.0,5.0,-100.00,NE,50,16.0,28.0,8,-99.99,,,-99.99,,2013-05-03 14:11:00,
2013-05-03 07:21:00,70.0,6.0,-100.00,ENE,63,14.0,27.0,8,-99.99,,,-99.99,,2013-05-03 14:21:00,
2013-05-03 07:31:00,69.0,5.0,-100.00,ENE,58,16.0,26.0,8,-99.99,,,-99.99,,2013-05-03 14:31:00,
2013-05-03 07:42:00,69.0,8.0,-100.00,ENE,57,17.0,27.0,9,-99.99,,,-99.99,,2013-05-03 14:42:00,
2013-05-03 07:52:00,69.0,8.0,-100.00,ENE,65,18.0,30.0,9,-99.99,,,-99.99,,2013-05-03 14:52:00,
2013-05-03 08:01:00,69.0,8.0,-100.00,ENE,60,18.0,32.0,9,-99.99,,,-99.99,,2013-05-03 15:01:00,
2013-05-03 08:11:00,69.0,8.0,-100.00,ENE,63,18.0,30.0,9,-99.99,,,-99.99,,2013-05-03 15:11:00,
2013-05-03 08:22:00,69.0,8.0,-100.00,ENE,65,21.0,33.0,9,-99.99,,,-99.99,,2013-05-03 15:22:00,
2013-05-03 08:32:00,69.0,8.0,-100.00,ENE,67,20.0,32.0,9,-99.99,,,-99.99,,2013-05-03 15:32:00,
2013-05-03 08:43:00,69.0,8.0,-100.00,ENE,64,21.0,35.0,9,-99.99,,,-99.99,,2013-05-03 15:43:00,
2013-05-03 08:53:00,69.0,8.0,-100.00,ENE,68,20.0,36.0,9,-99.99,,,-99.99,,2013-05-03 15:53:00,
2013-05-03 09:03:00,69.0,8.0,-100.00,ENE,68,20.0,36.0,9,-99.99,,,-99.99,,2013-05-03 16:03:00,
2013-05-03 09:12:00,70.0,9.0,-100.00,ENE,66,21.0,35.0,9,-99.99,,,-99.99,,2013-05-03 16:12:00,
2013-05-03 09:22:00,70.0,9.0,-100.00,ENE,66,20.0,35.0,9,-99.99,,,-99.99,,2013-05-03 16:22:00,
2013-05-03 09:32:00,70.0,9.0,-100.00,NE,56,16.0,30.0,9,-99.99,,,-99.99,,2013-05-03 16:32:00,
2013-05-03 09:42:00,71.0,9.0,-100.00,ENE,63,19.0,30.0,9,-99.99,,,-99.99,,2013-05-03 16:42:00,
2013-05-03 09:52:00,71.0,9.0,-100.00,ENE,65,18.0,30.0,9,-99.99,,,-99.99,,2013-05-03 16:52:00,
2013-05-03 10:02:00,71.0,9.0,-100.00,ENE,72,19.0,31.0,9,-99.99,,,-99.99,,2013-05-03 17:02:00,
2013-05-03 10:11:00,71.0,9.0,-100.00,ENE,67,17.0,26.0,9,-99.99,,,-99.99,,2013-05-03 17:11:00,
2013-05-03 10:22:00,71.0,12.0,-100.00,ENE,66,17.0,25.0,10,-99.99,,,-99.99,,2013-05-03 17:22:00,
2013-05-03 10:31:00,72.0,12.0,-100.00,ENE,58,14.0,25.0,10,-99.99,,,-99.99,,2013-05-03 17:31:00,
2013-05-03 10:42:00,73.0,11.0,-100.00,ENE,58,14.0,23.0,9,-99.99,,,-99.99,,2013-05-03 17:42:00,
2013-05-03 10:51:00,72.0,10.0,-100.00,ENE,57,15.0,26.0,9,-99.99,,,-99.99,,2013-05-03 17:51:00,
2013-05-03 11:01:00,72.0,10.0,-100.00,ENE,61,14.0,29.0,9,-99.99,,,-99.99,,2013-05-03 18:01:00,
2013-05-03 11:11:00,73.0,11.0,-100.00,ENE,58,13.0,24.0,9,-99.99,,,-99.99,,2013-05-03 18:11:00,
2013-05-03 11:21:00,74.0,12.0,-100.00,NE,55,13.0,25.0,9,-99.99,,,-99.99,,2013-05-03 18:21:00,
2013-05-03 11:31:00,74.0,14.0,-100.00,NE,52,12.0,20.0,10,-99.99,,,-99.99,,2013-05-03 18:31:00,
2013-05-03 11:42:00,75.0,12.0,-100.00,NE,53,12.0,23.0,9,-99.99,,,-99.99,,2013-05-03 18:42:00,
2013-05-03 11:51:00,75.0,12.0,-100.00,NE,56,11.0,21.0,9,-99.99,,,-99.99,,2013-05-03 18:51:00,
2013-05-03 12:01:00,75.0,12.0,-100.00,NE,53,11.0,19.0,9,-99.99,,,-99.99,,2013-05-03 19:01:00,
2013-05-03 12:11:00,75.0,12.0,-100.00,ENE,64,9.0,17.0,9,-99.99,,,-99.99,,2013-05-03 19:11:00,
2013-05-03 12:21:00,76.0,13.0,-100.00,NE,49,9.0,15.0,9,-99.99,,,-99.99,,2013-05-03 19:21:00,
2013-05-03 12:31:00,77.0,11.0,-100.00,ENE,58,4.0,11.0,8,-99.99,,,-99.99,,2013-05-03 19:31:00,
2013-05-03 12:41:00,77.0,14.0,-100.00,ENE,65,8.0,14.0,9,-99.99,,,-99.99,,2013-05-03 19:41:00,
2013-05-03 12:52:00,76.0,13.0,-100.00,NE,53,10.0,16.0,9,-99.99,,,-99.99,,2013-05-03 19:52:00,
2013-05-03 13:02:00,76.0,13.0,-100.00,East,86,7.0,13.0,9,-99.99,,,-99.99,,2013-05-03 20:02:00,
2013-05-03 13:11:00,77.0,11.0,-100.00,East,83,7.0,14.0,8,-99.99,,,-99.99,,2013-05-03 20:11:00,
2013-05-03 13:21:00,77.0,14.0,-100.00,NE,37,8.0,16.0,9,-99.99,,,-99.99,,2013-05-03 20:21:00,
2013-05-03 13:31:00,77.0,14.0,-100.00,NE,44,10.0,15.0,9,-99.99,,,-99.99,,2013-05-03 20:31:00,
2013-05-03 13:41:00,77.0,14.0,-100.00,NE,40,8.0,14.0,9,-99.99,,,-99.99,,2013-05-03 20:41:00,
2013-05-03 13:52:00,77.0,14.0,-100.00,ENE,69,8.0,15.0,9,-99.99,,,-99.99,,2013-05-03 20:52:00,
2013-05-03 14:01:00,78.0,15.0,-100.00,NE,55,7.0,13.0,9,-99.99,,,-99.99,,2013-05-03 21:01:00,
2013-05-03 14:11:00,78.0,12.0,-100.00,East,91,6.0,13.0,8,-99.99,,,-99.99,,2013-05-03 21:11:00,
2013-05-03 14:21:00,79.0,15.0,-100.00,ENE,64,6.0,14.0,9,-99.99,,,-99.99,,2013-05-03 21:21:00,
2013-05-03 14:32:00,79.0,13.0,-100.00,ENE,65,6.0,15.0,8,-99.99,,,-99.99,,2013-05-03 21:32:00,
2013-05-03 14:42:00,79.0,13.0,-100.00,ENE,72,7.0,15.0,8,-99.99,,,-99.99,,2013-05-03 21:42:00,
2013-05-03 14:50:00,79.0,13.0,-100.00,SE,134,6.0,12.0,8,-99.99,,,-99.99,,2013-05-03 21:50:00,
2013-05-03 14:52:00,78.0,12.0,-100.00,East,91,8.0,12.0,8,-99.99,,,-99.99,,2013-05-03 21:52:00,
2013-05-03 15:02:00,80.0,13.0,-100.00,ENE,66,4.0,10.0,8,-99.99,,,-99.99,,2013-05-03 22:02:00,
2013-05-03 15:12:00,79.0,13.0,-100.00,East,81,7.0,14.0,8,-99.99,,,-99.99,,2013-05-03 22:12:00,
2013-05-03 15:22:00,79.0,13.0,-100.00,SE,134,6.0,12.0,8,-99.99,,,-99.99,,2013-05-03 22:22:00,
2013-05-03 15:30:00,77.0,16.0,-100.00,WSW,253,6.0,11.0,10,-99.99,,,-99.99,,2013-05-03 22:30:00,
2013-05-03 15:32:00,79.0,13.0,-100.00,SE,134,6.0,12.0,8,-99.99,,,-99.99,,2013-05-03 22:32:00,
2013-05-03 15:42:00,79.0,13.0,-100.00,SE,134,6.0,12.0,8,-99.99,,,-99.99,,2013-05-03 22:42:00,
2013-05-03 16:01:00,77.0,16.0,-100.00,WSW,253,6.0,11.0,10,-99.99,,,-99.99,,2013-05-03 23:01:00,
2013-05-03 16:11:00,77.0,16.0,-100.00,WSW,253,6.0,11.0,10,-99.99,,,-99.99,,2013-05-03 23:11:00,
2013-05-03 16:21:00,77.0,16.0,-100.00,WSW,253,6.0,11.0,10,-99.99,,,-99.99,,2013-05-03 23:21:00,
2013-05-03 17:22:00,73.0,23.0,-100.00,WSW,254,4.0,6.0,15,-99.99,,,-99.99,,2013-05-04 00:22:00,
2013-05-03 17:31:00,73.0,24.0,-100.00,West,271,4.0,7.0,16,-99.99,,,-99.99,,2013-05-04 00:31:00,
2013-05-03 17:41:00,73.0,24.0,-100.00,West,271,4.0,7.0,16,-99.99,,,-99.99,,2013-05-04 00:41:00,
2013-05-03 17:52:00,74.0,25.0,-100.00,WNW,284,4.0,7.0,16,-99.99,,,-99.99,,2013-05-04 00:52:00,
2013-05-03 18:01:00,74.0,22.0,-100.00,WNW,302,4.0,9.0,14,-99.99,,,-99.99,,2013-05-04 01:01:00,
2013-05-03 18:11:00,74.0,22.0,-100.00,West,270,5.0,10.0,14,-99.99,,,-99.99,,2013-05-04 01:11:00,
2013-05-03 18:21:00,73.0,19.0,-100.00,WSW,253,5.0,9.0,13,-99.99,,,-99.99,,2013-05-04 01:21:00,
2013-05-03 18:31:00,72.0,20.0,-100.00,West,267,4.0,10.0,14,-99.99,,,-99.99,,2013-05-04 01:31:00,
2013-05-03 18:41:00,71.0,18.0,-100.00,WNW,292,4.0,7.0,13,-99.99,,,-99.99,,2013-05-04 01:41:00,
2013-05-03 18:52:00,70.0,20.0,-100.00,WNW,295,2.0,6.0,15,-99.99,,,-99.99,,2013-05-04 01:52:00,
2013-05-03 19:02:00,70.0,22.0,-100.00,NW,307,2.0,5.0,16,-99.99,,,-99.99,,2013-05-04 02:02:00,
2013-05-03 19:11:00,69.0,19.0,-100.00,NW,322,3.0,6.0,15,-99.99,,,-99.99,,2013-05-04 02:11:00,
2013-05-03 19:21:00,69.0,18.0,-100.00,NNW,337,4.0,6.0,14,-99.99,,,-99.99,,2013-05-04 02:21:00,
2013-05-03 19:32:00,68.0,17.0,-100.00,North,349,4.0,6.0,14,-99.99,,,-99.99,,2013-05-04 02:32:00,
2013-05-03 19:41:00,68.0,14.0,-100.00,North,3,5.0,7.0,12,-99.99,,,-99.99,,2013-05-04 02:41:00,
2013-05-03 19:52:00,67.0,13.0,-100.00,North,10,4.0,6.0,12,-99.99,,,-99.99,,2013-05-04 02:52:00,
2013-05-03 20:11:00,66.0,14.0,-100.00,NNE,28,3.0,5.0,13,-99.99,,,-99.99,,2013-05-04 03:11:00,
2013-05-03 20:32:00,66.0,12.0,-100.00,NE,43,4.0,5.0,12,-99.99,,,-99.99,,2013-05-04 03:32:00,
2013-05-03 20:43:00,66.0,12.0,-100.00,NE,43,5.0,7.0,12,-99.99,,,-99.99,,2013-05-04 03:43:00,
2013-05-03 21:02:00,66.0,12.0,-100.00,NNE,32,5.0,7.0,12,-99.99,,,-99.99,,2013-05-04 04:02:00,
2013-05-03 21:12:00,66.0,12.0,-100.00,NE,44,4.0,5.0,12,-99.99,,,-99.99,,2013-05-04 04:12:00,
2013-05-03 21:22:00,64.0,10.0,-100.00,ENE,62,3.0,4.0,12,-99.99,,,-99.99,,2013-05-04 04:22:00,
2013-05-03 21:32:00,65.0,11.0,-100.00,NE,43,3.0,5.0,12,-99.99,,,-99.99,,2013-05-04 04:32:00,
2013-05-03 21:42:00,65.0,9.0,-100.00,NE,39,4.0,6.0,11,-99.99,,,-99.99,,2013-05-04 04:42:00,
2013-05-03 21:52:00,65.0,7.0,-100.00,NNE,30,5.0,8.0,10,-99.99,,,-99.99,,2013-05-04 04:52:00,
2013-05-03 22:02:00,65.0,7.0,-100.00,NE,38,4.0,6.0,10,-99.99,,,-99.99,,2013-05-04 05:02:00,
2013-05-03 22:11:00,65.0,7.0,-100.00,NE,50,4.0,5.0,10,-99.99,,,-99.99,,2013-05-04 05:11:00,
2013-05-03 22:32:00,66.0,6.0,-100.00,NE,47,5.0,6.0,9,-99.99,,,-99.99,,2013-05-04 05:32:00,
2013-05-03 22:42:00,66.0,6.0,-100.00,NE,41,5.0,7.0,9,-99.99,,,-99.99,,2013-05-04 05:42:00,
2013-05-03 22:51:00,66.0,6.0,-100.00,NE,44,5.0,7.0,9,-99.99,,,-99.99,,2013-05-04 05:51:00,
2013-05-03 23:01:00,66.0,6.0,-100.00,NE,44,6.0,7.0,9,-99.99,,,-99.99,,2013-05-04 06:01:00,
2013-05-03 23:11:00,66.0,6.0,-100.00,NE,46,6.0,7.0,9,-99.99,,,-99.99,,2013-05-04 06:11:00,
2013-05-03 23:21:00,66.0,6.0,-100.00,NE,45,5.0,7.0,9,-99.99,,,-99.99,,2013-05-04 06:21:00,
2013-05-03 23:32:00,66.0,6.0,-100.00,NE,41,5.0,7.0,9,-99.99,,,-99.99,,2013-05-04 06:32:00,
2013-05-03 23:41:00,66.0,6.0,-100.00,NE,48,5.0,7.0,9,-99.99,,,-99.99,,2013-05-04 06:41:00,
2013-05-03 23:52:00,65.0,7.0,-100.00,NE,55,4.0,5.0,10,-99.99,,,-99.99,,2013-05-04 06:52:00,